DABC/CZL METAR and TAF weather

Enter ICAO airport designator
Station Type Date Time Source
DABC METAR 2021/07/28 03:00 UTC NOAA

DABC 280300Z 27003KT CAVOK 22/12 Q1016


Station Type Date Time Source
DABC Decoded METAR 2021/07/28 03:00 UTC NOAA

Constantine, Algeria (DABC) 36-17N 006-37E 694M
Jul 27, 2021 - 11:00 PM EDT / 2021.07.28 0300 UTC
Wind: from the W (270 degrees) at 3 MPH (3 KT):0
Visibility: greater than 7 mile(s):0
Temperature: 71 F (22 C)
Dew Point: 53 F (12 C)
Relative Humidity: 53%
Pressure (altimeter): 30.00 in. Hg (1016 hPa)
ob: DABC 280300Z 27003KT CAVOK 22/12 Q1016
cycle: 3

Station Type Date Time Source
DABC TAF 2021/07/27 18:33 UTC NOAA

TAF DABC 271700Z 2718/2818 26014KT 9999 FEW023CB BKN100 PROB40
TEMPO 2718/2721 27015G25KT 5000 -TSRA
BECMG 2720/2723 34008KT SCT030 PROB40
TEMPO 2812/2818 FEW023CB

Example: see airport list